createdAt,value
2019-02-20T00:02:15.935Z,99863.48
2019-02-20T00:05:22.292Z,99873.41
2019-02-20T00:08:28.541Z,99869.98
2019-02-20T00:11:34.951Z,99871.34
2019-02-20T00:14:41.300Z,99879.16
2019-02-20T00:17:47.628Z,99879.16
2019-02-20T00:20:53.905Z,99887.17
2019-02-20T00:24:00.238Z,99905.73
2019-02-20T00:27:06.514Z,99907.34
2019-02-20T00:30:12.827Z,99905.36
2019-02-20T00:33:19.298Z,99903.60
2019-02-20T00:36:25.635Z,99914.12
2019-02-20T00:39:32.042Z,99920.06
2019-02-20T00:42:38.385Z,99915.04
2019-02-20T00:46:03.606Z,99798.59
2019-02-20T00:49:16.814Z,99911.38
2019-02-20T00:52:34.515Z,99906.36
2019-02-20T00:55:40.854Z,99918.36
2019-02-20T00:58:48.186Z,99933.44
2019-02-20T01:01:54.464Z,99937.31
2019-02-20T01:05:00.815Z,99945.81
2019-02-20T01:08:07.344Z,99952.66
2019-02-20T01:11:13.696Z,99942.83
2019-02-20T01:14:20.073Z,99953.97
2019-02-20T01:17:26.449Z,99974.11
2019-02-20T01:20:32.774Z,99966.67
2019-02-20T01:23:39.158Z,99962.42
2019-02-20T01:26:45.502Z,99961.52
2019-02-20T01:29:51.837Z,99956.77
2019-02-20T01:32:58.142Z,99953.16
2019-02-20T01:36:04.577Z,99954.54
2019-02-20T01:39:10.960Z,99952.48
2019-02-20T01:42:17.315Z,99949.63
2019-02-20T01:45:23.658Z,99938.55
2019-02-20T01:48:29.943Z,99938.25
2019-02-20T01:51:36.296Z,99954.51
2019-02-20T01:54:42.626Z,99956.80
2019-02-20T01:57:48.946Z,99947.30
2019-02-20T02:00:55.186Z,99947.30
2019-02-20T02:04:01.694Z,99961.06
2019-02-20T02:07:09.125Z,99985.64
2019-02-20T02:10:15.387Z,99997.26
2019-02-20T02:13:21.832Z,99981.47
2019-02-20T02:16:28.217Z,99980.91
2019-02-20T02:19:34.567Z,100002.31
2019-02-20T02:22:40.927Z,100006.83
2019-02-20T02:25:47.255Z,100021.13
2019-02-20T02:28:53.680Z,100019.65
2019-02-20T02:32:00.033Z,100022.00
2019-02-20T02:35:06.355Z,100028.09
2019-02-20T02:38:12.785Z,100028.09
2019-02-20T02:41:19.153Z,100020.99
2019-02-20T02:44:25.624Z,100029.02
2019-02-20T02:47:31.961Z,100027.24
2019-02-20T02:50:38.264Z,100039.67
2019-02-20T02:53:44.617Z,100033.71
2019-02-20T02:56:51.067Z,100043.53
2019-02-20T02:59:57.424Z,100056.50
2019-02-20T03:03:03.788Z,100063.03
2019-02-20T03:06:10.166Z,100066.06
2019-02-20T03:09:16.416Z,100084.00
2019-02-20T03:12:22.876Z,100085.55
2019-02-20T03:15:29.216Z,100094.28
2019-02-20T03:18:35.621Z,100097.31
2019-02-20T03:21:41.972Z,100102.05
2019-02-20T03:24:48.326Z,100109.88
2019-02-20T03:27:54.682Z,100119.55
2019-02-20T03:31:01.110Z,100119.55
2019-02-20T03:34:09.026Z,100126.88
2019-02-20T03:37:15.571Z,100129.93
2019-02-20T03:40:22.225Z,100151.77
2019-02-20T03:43:29.530Z,100155.03
2019-02-20T03:46:35.951Z,100160.06
2019-02-20T03:49:42.306Z,100173.09
2019-02-20T03:52:48.634Z,100192.45
2019-02-20T03:55:55.166Z,100185.41
2019-02-20T03:59:01.564Z,100197.19
2019-02-20T04:02:07.831Z,100217.68
2019-02-20T04:05:14.100Z,100218.73
2019-02-20T04:08:20.437Z,100212.34
2019-02-20T04:11:26.895Z,100234.33
2019-02-20T04:14:33.251Z,100250.99
2019-02-20T04:17:39.521Z,100254.39
2019-02-20T04:20:45.861Z,100258.77
2019-02-20T04:24:01.964Z,100262.81
2019-02-20T04:27:00.373Z,100283.02
2019-02-20T04:30:06.960Z,100279.37
2019-02-20T04:33:13.320Z,100289.75
2019-02-20T04:36:19.717Z,100299.17
2019-02-20T04:39:25.995Z,100312.60
2019-02-20T04:42:32.430Z,100326.06
2019-02-20T04:45:38.759Z,100316.03
2019-02-20T04:48:45.188Z,100343.27
2019-02-20T04:51:51.559Z,100336.92
2019-02-20T04:54:58.187Z,100361.16
2019-02-20T04:58:18.320Z,100375.13
2019-02-20T05:01:24.851Z,100373.09
2019-02-20T05:04:31.143Z,100393.79
2019-02-20T05:07:37.446Z,100407.02
2019-02-20T05:10:43.794Z,100421.16
2019-02-20T05:13:50.159Z,100420.47
2019-02-20T05:16:56.557Z,100432.30
2019-02-20T05:20:02.980Z,100444.70
2019-02-20T05:23:14.152Z,100444.70
2019-02-20T05:26:22.365Z,100448.81
2019-02-20T05:29:28.682Z,100459.43
2019-02-20T05:32:34.964Z,100464.32
2019-02-20T05:35:41.361Z,100475.74
2019-02-20T05:38:48.119Z,100494.92
2019-02-20T05:41:54.387Z,100495.44
2019-02-20T05:45:00.948Z,100501.64
2019-02-20T05:48:07.469Z,100497.63
2019-02-20T05:51:13.802Z,100504.34
2019-02-20T05:54:20.133Z,100513.46
2019-02-20T05:57:26.524Z,100529.92
2019-02-20T06:00:32.803Z,100546.40
2019-02-20T06:03:39.259Z,100531.59
2019-02-20T06:06:45.601Z,100550.46
2019-02-20T06:09:51.965Z,100548.44
2019-02-20T06:13:02.166Z,100559.86
2019-02-20T06:16:08.535Z,100575.34
2019-02-20T06:19:14.870Z,100577.00
2019-02-20T06:22:21.261Z,100584.08
2019-02-20T06:25:27.667Z,100582.41
2019-02-20T06:28:33.989Z,100590.78
2019-02-20T06:31:40.285Z,100592.45
2019-02-20T06:34:46.618Z,100597.69
2019-02-20T06:37:53.277Z,100621.04
2019-02-20T06:40:59.686Z,100613.80
2019-02-20T06:44:06.101Z,100611.63
2019-02-20T06:47:12.484Z,100619.65
2019-02-20T06:50:18.751Z,100629.77
2019-02-20T06:53:25.143Z,100651.95
2019-02-20T06:56:31.486Z,100664.02
2019-02-20T06:59:37.785Z,100669.08
2019-02-20T07:02:44.148Z,100681.84
2019-02-20T07:06:15.009Z,100677.81
2019-02-20T07:09:47.904Z,100686.23
2019-02-20T07:13:03.386Z,100717.12
2019-02-20T07:16:59.818Z,100709.55
2019-02-20T07:20:45.460Z,100715.45
2019-02-20T07:24:10.523Z,100725.86
2019-02-20T07:27:54.055Z,100736.34
2019-02-20T07:31:00.440Z,100731.98
2019-02-20T07:34:06.744Z,100747.80
2019-02-20T07:37:13.119Z,100764.58
2019-02-20T07:40:19.386Z,100763.77
2019-02-20T07:43:25.793Z,100769.36
2019-02-20T07:46:32.219Z,100773.72
2019-02-20T07:49:38.573Z,100775.42
2019-02-20T07:52:44.837Z,100786.53
2019-02-20T07:55:51.088Z,100795.63
2019-02-20T07:58:57.432Z,100821.58
2019-02-20T08:02:03.739Z,100829.13
2019-02-20T08:05:10.153Z,100828.48
2019-02-20T08:08:16.514Z,100838.05
2019-02-20T08:11:23.040Z,100845.84
2019-02-20T08:14:29.321Z,100839.46
2019-02-20T08:17:35.656Z,100856.64
2019-02-20T08:20:41.923Z,100878.21
2019-02-20T08:23:51.443Z,100878.59
2019-02-20T08:26:57.705Z,100893.08
2019-02-20T08:30:04.714Z,100895.17
2019-02-20T08:33:11.120Z,100905.64
2019-02-20T08:36:18.096Z,100910.69
2019-02-20T08:39:24.454Z,100918.79
2019-02-20T08:42:30.723Z,100914.77
2019-02-20T08:45:37.122Z,100929.06
2019-02-20T08:48:43.514Z,100933.77
2019-02-20T08:51:49.945Z,100945.70
2019-02-20T08:54:56.304Z,100940.95
2019-02-20T08:58:02.551Z,100970.23
2019-02-20T09:01:08.888Z,100966.09
2019-02-20T09:04:15.244Z,100973.50
2019-02-20T09:07:21.611Z,100991.62
2019-02-20T09:10:27.941Z,100987.84
2019-02-20T09:13:34.325Z,101012.92
2019-02-20T09:16:40.681Z,101002.68
2019-02-20T09:19:47.069Z,100998.12
2019-02-20T09:22:53.416Z,101005.94
2019-02-20T09:25:59.679Z,101004.06
2019-02-20T09:29:06.111Z,101017.13
2019-02-20T09:32:12.435Z,101014.71
2019-02-20T09:35:18.771Z,101026.80
2019-02-20T09:38:25.273Z,101026.30
2019-02-20T09:41:31.676Z,101021.97
2019-02-20T09:44:42.355Z,101017.81
2019-02-20T09:47:48.721Z,101031.56
2019-02-20T09:50:55.134Z,101042.27
2019-02-20T09:54:01.650Z,101030.08
2019-02-20T09:57:08.083Z,101052.39
2019-02-20T10:00:15.148Z,101061.08
2019-02-20T10:03:21.711Z,101073.39
2019-02-20T10:06:28.133Z,101069.77
2019-02-20T10:09:34.451Z,101076.92
2019-02-20T10:12:40.691Z,101087.38
2019-02-20T10:15:47.101Z,101103.59
2019-02-20T10:18:53.440Z,101103.69
2019-02-20T10:21:59.762Z,101100.50
2019-02-20T10:25:06.241Z,101121.38
2019-02-20T10:28:12.640Z,101129.27
2019-02-20T10:31:19.033Z,101138.70
2019-02-20T10:34:25.401Z,101150.38
2019-02-20T10:37:31.722Z,101141.11
2019-02-20T10:40:38.111Z,101132.08
2019-02-20T10:43:44.435Z,101137.48
2019-02-20T10:46:50.673Z,101141.56
2019-02-20T10:49:57.049Z,101151.77
2019-02-20T10:53:03.373Z,101150.12
2019-02-20T10:56:09.934Z,101155.06
2019-02-20T10:59:16.164Z,101178.11
2019-02-20T11:02:22.554Z,101186.84
2019-02-20T11:05:28.792Z,101186.47
2019-02-20T11:08:35.192Z,101198.60
2019-02-20T11:11:41.448Z,101203.30
2019-02-20T11:14:48.978Z,101216.25
2019-02-20T11:17:56.728Z,101210.77
2019-02-20T11:21:03.193Z,101219.67
2019-02-20T11:24:09.530Z,101226.13
2019-02-20T11:27:15.882Z,101224.83
2019-02-20T11:30:22.252Z,101234.30
2019-02-20T11:33:28.586Z,101238.38
2019-02-20T11:36:35.019Z,101241.75
2019-02-20T11:39:41.389Z,101263.41
2019-02-20T11:42:47.666Z,101266.75
2019-02-20T11:45:53.952Z,101274.64
2019-02-20T11:49:00.385Z,101270.43
2019-02-20T11:52:06.645Z,101290.99
2019-02-20T11:55:13.148Z,101294.98
2019-02-20T11:58:19.619Z,101314.97
2019-02-20T12:01:27.604Z,101293.05
2019-02-20T12:04:33.942Z,101302.87
2019-02-20T12:07:40.177Z,101317.09
2019-02-20T12:10:46.503Z,101318.80
2019-02-20T12:13:52.939Z,101322.87
2019-02-20T12:16:59.262Z,101318.16
2019-02-20T12:20:05.941Z,101315.44
2019-02-20T12:23:12.333Z,101326.95
2019-02-20T12:26:18.689Z,101324.56
2019-02-20T12:29:25.105Z,101324.38
2019-02-20T12:32:31.449Z,101337.05
2019-02-20T12:35:37.769Z,101350.59
2019-02-20T12:38:44.234Z,101349.20
2019-02-20T12:41:50.538Z,101355.42
2019-02-20T12:44:58.578Z,101361.98
2019-02-20T12:48:05.014Z,101381.00
2019-02-20T12:51:11.416Z,101372.20
2019-02-20T12:54:18.187Z,101384.69
2019-02-20T12:57:24.520Z,101395.42
2019-02-20T13:00:31.124Z,101400.88
2019-02-20T13:03:37.546Z,101408.68
2019-02-20T13:06:43.996Z,101409.30
2019-02-20T13:09:50.427Z,101432.47
2019-02-20T13:12:56.709Z,101431.64
2019-02-20T13:16:09.581Z,101430.01
2019-02-20T13:19:14.363Z,101444.73
2019-02-20T13:22:20.834Z,101447.52
2019-02-20T13:25:27.088Z,101450.87
2019-02-20T13:28:33.613Z,101375.93
2019-02-20T13:31:40.061Z,101464.73
2019-02-20T13:34:46.342Z,101475.74
2019-02-20T13:37:52.858Z,101487.25
2019-02-20T13:40:59.133Z,101483.47
2019-02-20T13:44:06.043Z,101488.05
2019-02-20T13:47:12.489Z,101492.77
2019-02-20T13:50:18.825Z,101498.61
2019-02-20T13:53:25.391Z,101505.22
2019-02-20T13:56:33.027Z,101489.16
2019-02-20T13:59:39.364Z,101518.63
2019-02-20T14:02:45.990Z,101512.99
2019-02-20T14:05:53.551Z,101520.05
2019-02-20T14:08:59.994Z,101537.88
2019-02-20T14:12:07.256Z,101538.38
2019-02-20T14:15:14.308Z,101543.62
2019-02-20T14:18:20.587Z,101551.66
2019-02-20T14:21:27.028Z,101554.74
2019-02-20T14:24:33.512Z,101546.27
2019-02-20T14:27:39.792Z,101561.60
2019-02-20T14:30:46.140Z,101569.03
2019-02-20T14:33:52.538Z,101570.47
2019-02-20T14:36:58.940Z,101568.84
2019-02-20T14:40:05.352Z,101583.48
2019-02-20T14:43:11.630Z,101585.26
2019-02-20T14:46:18.276Z,101592.30
2019-02-20T14:49:25.768Z,101600.88
2019-02-20T14:52:32.136Z,101601.83
2019-02-20T14:55:38.498Z,101606.86
2019-02-20T14:58:44.801Z,101617.41
2019-02-20T15:01:51.168Z,101626.97
2019-02-20T15:04:57.543Z,101635.42
2019-02-20T15:08:05.480Z,101631.71
2019-02-20T15:11:12.033Z,101636.08
2019-02-20T15:14:18.281Z,101647.03
2019-02-20T15:17:25.189Z,101648.27
2019-02-20T15:20:31.792Z,101654.59
2019-02-20T15:23:38.156Z,101660.11
2019-02-20T15:26:44.497Z,101669.37
2019-02-20T15:29:50.797Z,101686.67
2019-02-20T15:32:58.165Z,101687.41
2019-02-20T15:36:04.538Z,101710.67
2019-02-20T15:39:10.993Z,101702.42
2019-02-20T15:42:17.658Z,101715.63
2019-02-20T15:45:24.104Z,101713.65
2019-02-20T15:48:30.730Z,101720.94
2019-02-20T15:51:37.073Z,101721.58
2019-02-20T15:54:43.333Z,101727.68
2019-02-20T15:57:49.988Z,101740.56
2019-02-20T16:00:56.243Z,101732.15
2019-02-20T16:04:02.649Z,101734.48
2019-02-20T16:07:09.166Z,101738.36
2019-02-20T16:10:15.600Z,101754.45
2019-02-20T16:13:21.845Z,101762.36
2019-02-20T16:16:28.364Z,101765.44
2019-02-20T16:19:34.636Z,101765.17
2019-02-20T16:22:41.091Z,101772.97
2019-02-20T16:25:48.462Z,101768.43
2019-02-20T16:28:55.268Z,101776.06
2019-02-20T16:32:01.586Z,101774.88
2019-02-20T16:35:09.675Z,101780.28
2019-02-20T16:38:16.117Z,101789.81
2019-02-20T16:41:22.445Z,101803.41
2019-02-20T16:44:28.700Z,101808.12
2019-02-20T16:47:35.073Z,101821.94
2019-02-20T16:50:41.436Z,101823.13
2019-02-20T16:53:48.276Z,101834.07
2019-02-20T16:56:54.528Z,101830.71
2019-02-20T17:00:01.301Z,101836.50
2019-02-20T17:03:09.846Z,101846.41
2019-02-20T17:06:17.041Z,101858.06
2019-02-20T17:09:23.579Z,101861.83
2019-02-20T17:12:30.469Z,101864.34
2019-02-20T17:15:36.862Z,101864.72
2019-02-20T17:18:43.104Z,101871.50
2019-02-20T17:21:49.449Z,101875.70
2019-02-20T17:24:55.879Z,101886.28
2019-02-20T17:28:05.693Z,101887.16
2019-02-20T17:31:10.435Z,101898.44
2019-02-20T17:34:16.983Z,101899.16
2019-02-20T17:37:23.254Z,101909.95
2019-02-20T17:40:29.635Z,101908.58
2019-02-20T17:43:35.972Z,101920.50
2019-02-20T17:46:42.265Z,101938.16
2019-02-20T17:49:49.264Z,101934.25
2019-02-20T17:52:56.091Z,101950.94
2019-02-20T17:56:02.508Z,101958.28
2019-02-20T17:59:08.855Z,101968.12
2019-02-20T18:02:15.244Z,101974.69
2019-02-20T18:05:21.581Z,101975.45
2019-02-20T18:08:27.995Z,101982.75
2019-02-20T18:11:37.231Z,101998.61
2019-02-20T18:14:43.573Z,101997.89
2019-02-20T18:17:49.830Z,101997.16
2019-02-20T18:20:56.087Z,102005.70
2019-02-20T18:24:03.698Z,102002.77
2019-02-20T18:27:10.152Z,102002.53
2019-02-20T18:30:16.871Z,102006.31
2019-02-20T18:33:23.258Z,101999.73
2019-02-20T18:36:29.687Z,102012.16
2019-02-20T18:39:36.040Z,102028.40
2019-02-20T18:42:42.583Z,102028.03
2019-02-20T18:45:49.010Z,102025.70
2019-02-20T18:48:55.677Z,102031.04
2019-02-20T18:52:02.165Z,102032.16
2019-02-20T18:55:09.668Z,102043.74
2019-02-20T18:58:18.908Z,101968.80
2019-02-20T19:01:25.498Z,102058.73
2019-02-20T19:04:32.736Z,102058.47
2019-02-20T19:07:39.467Z,102074.92
2019-02-20T19:10:45.867Z,102065.50
2019-02-20T19:14:03.884Z,102068.22
2019-02-20T19:17:42.419Z,102077.70
2019-02-20T19:21:22.887Z,102080.45
2019-02-20T19:24:54.124Z,102079.39
2019-02-20T19:28:20.625Z,102097.63
2019-02-20T19:32:15.824Z,102092.37
2019-02-20T19:35:50.806Z,102090.27
2019-02-20T19:39:34.762Z,102094.95
2019-02-20T19:43:28.788Z,102108.58
2019-02-20T19:47:10.795Z,102108.55
2019-02-20T19:50:58.920Z,102034.27
2019-02-20T19:54:19.291Z,102126.20
2019-02-20T19:58:19.662Z,102117.27
2019-02-20T20:02:34.953Z,102131.53
2019-02-20T20:06:15.874Z,102129.06
2019-02-20T20:09:44.714Z,102123.20
2019-02-20T20:13:29.888Z,102144.11
2019-02-20T20:17:26.716Z,102149.95
2019-02-20T20:21:23.586Z,102155.48
2019-02-20T20:25:01.274Z,102163.09
2019-02-20T20:28:35.910Z,102166.13
2019-02-20T20:32:52.631Z,102178.05
2019-02-20T20:36:15.698Z,102177.91
2019-02-20T20:40:03.258Z,102194.20
2019-02-20T20:43:46.698Z,102193.22
2019-02-20T20:47:16.735Z,102190.19
2019-02-20T20:50:55.918Z,102197.48
2019-02-20T20:54:34.840Z,102199.77
2019-02-20T20:58:04.948Z,102205.34
2019-02-20T21:01:43.411Z,102198.19
2019-02-20T21:05:40.090Z,102212.75
2019-02-20T21:09:10.905Z,102207.83
2019-02-20T21:13:02.074Z,102218.77
2019-02-20T21:16:20.027Z,102214.54
2019-02-20T21:20:10.955Z,102222.98
2019-02-20T21:24:01.870Z,102225.40
2019-02-20T21:27:32.309Z,102228.53
2019-02-20T21:31:21.919Z,102232.90
2019-02-20T21:35:02.870Z,102237.30
2019-02-20T21:38:55.001Z,102239.24
2019-02-20T21:42:47.860Z,102250.70
2019-02-20T21:46:02.307Z,102248.88
2019-02-20T21:49:22.042Z,102257.80
2019-02-20T21:53:24.525Z,102250.58
2019-02-20T21:56:58.126Z,102255.39
2019-02-20T22:00:39.481Z,102250.23
2019-02-20T22:04:32.512Z,102178.09
2019-02-20T22:07:55.399Z,102249.36
2019-02-20T22:11:30.155Z,102248.10
2019-02-20T22:15:14.712Z,102253.91
2019-02-20T22:18:47.571Z,102259.41
2019-02-20T22:22:13.110Z,102270.50
2019-02-20T22:25:55.390Z,102271.34
2019-02-20T22:29:37.760Z,102274.72
2019-02-20T22:33:10.737Z,102271.58
2019-02-20T22:37:08.474Z,102269.45
2019-02-20T22:40:46.842Z,102277.39
2019-02-20T22:44:43.672Z,102269.83
2019-02-20T22:48:00.281Z,102280.34
2019-02-20T22:51:44.046Z,102283.20
2019-02-20T22:55:24.639Z,102287.91
2019-02-20T22:58:45.929Z,102284.70
2019-02-20T23:02:15.613Z,102290.55
2019-02-20T23:05:55.383Z,102293.97
2019-02-20T23:09:30.713Z,102285.09
2019-02-20T23:13:14.336Z,102302.70
2019-02-20T23:16:20.706Z,102297.78
2019-02-20T23:19:27.213Z,102293.72
2019-02-20T23:22:34.537Z,102300.77
2019-02-20T23:25:40.906Z,102299.16
2019-02-20T23:28:48.286Z,102309.44
2019-02-20T23:31:54.570Z,102307.30
2019-02-20T23:35:00.907Z,102315.66
2019-02-20T23:38:07.228Z,102312.79
2019-02-20T23:41:13.605Z,102310.03
2019-02-20T23:44:20.018Z,102311.71
2019-02-20T23:47:26.327Z,102311.13
2019-02-20T23:50:32.685Z,102316.83
2019-02-20T23:53:39.116Z,102324.66
2019-02-20T23:56:45.489Z,102332.73
2019-02-20T23:59:51.839Z,102337.15
